sensor_id;sensor_type;location;lat;lon;timestamp;P1;durP1;ratioP1;P2;durP2;ratioP2
12962;SDS011;6546;49.882;8.666;2022-11-03T00:00:32;9.83;;;3.63;;
12962;SDS011;6546;49.882;8.666;2022-11-03T00:02:58;9.50;;;3.50;;
12962;SDS011;6546;49.882;8.666;2022-11-03T00:05:26;8.17;;;3.47;;
12962;SDS011;6546;49.882;8.666;2022-11-03T00:08:12;7.87;;;3.43;;
12962;SDS011;6546;49.882;8.666;2022-11-03T00:10:39;10.30;;;3.80;;
12962;SDS011;6546;49.882;8.666;2022-11-03T00:13:05;11.07;;;4.13;;
12962;SDS011;6546;49.882;8.666;2022-11-03T00:15:32;9.60;;;4.00;;
12962;SDS011;6546;49.882;8.666;2022-11-03T00:17:58;11.57;;;4.63;;
12962;SDS011;6546;49.882;8.666;2022-11-03T00:20:25;9.80;;;4.87;;
12962;SDS011;6546;49.882;8.666;2022-11-03T00:22:51;8.83;;;4.47;;
12962;SDS011;6546;49.882;8.666;2022-11-03T00:25:20;10.63;;;4.40;;
12962;SDS011;6546;49.882;8.666;2022-11-03T00:27:52;9.37;;;4.60;;
12962;SDS011;6546;49.882;8.666;2022-11-03T00:30:19;10.97;;;4.20;;
12962;SDS011;6546;49.882;8.666;2022-11-03T00:32:46;7.47;;;3.60;;
12962;SDS011;6546;49.882;8.666;2022-11-03T00:35:12;8.70;;;4.00;;
12962;SDS011;6546;49.882;8.666;2022-11-03T00:37:39;10.43;;;4.20;;
12962;SDS011;6546;49.882;8.666;2022-11-03T00:40:06;6.63;;;3.70;;
12962;SDS011;6546;49.882;8.666;2022-11-03T00:42:36;12.43;;;4.47;;
12962;SDS011;6546;49.882;8.666;2022-11-03T00:45:03;9.73;;;4.60;;
12962;SDS011;6546;49.882;8.666;2022-11-03T00:47:30;8.37;;;4.10;;
12962;SDS011;6546;49.882;8.666;2022-11-03T00:49:57;12.20;;;4.93;;
12962;SDS011;6546;49.882;8.666;2022-11-03T00:52:23;10.00;;;4.57;;
12962;SDS011;6546;49.882;8.666;2022-11-03T00:54:50;11.53;;;4.50;;
12962;SDS011;6546;49.882;8.666;2022-11-03T00:57:16;10.87;;;4.20;;
12962;SDS011;6546;49.882;8.666;2022-11-03T00:59:44;12.07;;;3.63;;
12962;SDS011;6546;49.882;8.666;2022-11-03T01:02:11;11.30;;;3.70;;
12962;SDS011;6546;49.882;8.666;2022-11-03T01:04:37;7.47;;;3.07;;
12962;SDS011;6546;49.882;8.666;2022-11-03T01:07:21;9.83;;;3.47;;
12962;SDS011;6546;49.882;8.666;2022-11-03T01:09:48;11.53;;;3.70;;
12962;SDS011;6546;49.882;8.666;2022-11-03T01:12:15;8.37;;;3.60;;
12962;SDS011;6546;49.882;8.666;2022-11-03T01:14:45;10.33;;;3.80;;
12962;SDS011;6546;49.882;8.666;2022-11-03T01:17:14;13.77;;;5.33;;
12962;SDS011;6546;49.882;8.666;2022-11-03T01:19:41;8.07;;;3.80;;
12962;SDS011;6546;49.882;8.666;2022-11-03T01:22:08;9.57;;;3.93;;
12962;SDS011;6546;49.882;8.666;2022-11-03T01:24:35;8.03;;;3.90;;
12962;SDS011;6546;49.882;8.666;2022-11-03T01:27:03;11.07;;;3.90;;
12962;SDS011;6546;49.882;8.666;2022-11-03T01:29:29;9.93;;;3.47;;
12962;SDS011;6546;49.882;8.666;2022-11-03T01:31:57;7.43;;;2.83;;
12962;SDS011;6546;49.882;8.666;2022-11-03T01:34:24;7.37;;;2.80;;
12962;SDS011;6546;49.882;8.666;2022-11-03T01:36:51;9.37;;;3.60;;
12962;SDS011;6546;49.882;8.666;2022-11-03T01:39:18;6.90;;;2.70;;
12962;SDS011;6546;49.882;8.666;2022-11-03T01:41:46;7.80;;;3.33;;
12962;SDS011;6546;49.882;8.666;2022-11-03T01:44:30;7.13;;;3.13;;
12962;SDS011;6546;49.882;8.666;2022-11-03T01:47:02;6.73;;;3.20;;
12962;SDS011;6546;49.882;8.666;2022-11-03T01:49:35;4.97;;;3.13;;
12962;SDS011;6546;49.882;8.666;2022-11-03T01:52:05;11.20;;;3.23;;
12962;SDS011;6546;49.882;8.666;2022-11-03T01:54:35;5.83;;;3.07;;
12962;SDS011;6546;49.882;8.666;2022-11-03T01:57:04;8.53;;;3.53;;
12962;SDS011;6546;49.882;8.666;2022-11-03T01:59:35;7.53;;;3.03;;
12962;SDS011;6546;49.882;8.666;2022-11-03T02:02:03;7.20;;;3.47;;
12962;SDS011;6546;49.882;8.666;2022-11-03T02:04:31;7.43;;;3.10;;
12962;SDS011;6546;49.882;8.666;2022-11-03T02:07:01;4.03;;;2.67;;
12962;SDS011;6546;49.882;8.666;2022-11-03T02:09:34;7.33;;;2.97;;
12962;SDS011;6546;49.882;8.666;2022-11-03T02:12:02;6.30;;;3.03;;
12962;SDS011;6546;49.882;8.666;2022-11-03T02:14:33;6.17;;;3.60;;
12962;SDS011;6546;49.882;8.666;2022-11-03T02:17:02;8.63;;;3.30;;
12962;SDS011;6546;49.882;8.666;2022-11-03T02:19:36;9.27;;;3.73;;
12962;SDS011;6546;49.882;8.666;2022-11-03T02:22:16;10.27;;;3.60;;
12962;SDS011;6546;49.882;8.666;2022-11-03T02:25:02;6.47;;;3.00;;
12962;SDS011;6546;49.882;8.666;2022-11-03T02:27:40;9.73;;;3.20;;
12962;SDS011;6546;49.882;8.666;2022-11-03T02:30:08;5.50;;;2.97;;
12962;SDS011;6546;49.882;8.666;2022-11-03T02:32:37;7.77;;;3.70;;
12962;SDS011;6546;49.882;8.666;2022-11-03T02:35:10;9.63;;;3.60;;
12962;SDS011;6546;49.882;8.666;2022-11-03T02:37:45;8.10;;;3.53;;
12962;SDS011;6546;49.882;8.666;2022-11-03T02:40:15;9.17;;;4.07;;
12962;SDS011;6546;49.882;8.666;2022-11-03T02:42:47;9.73;;;3.17;;
12962;SDS011;6546;49.882;8.666;2022-11-03T02:45:18;8.67;;;2.93;;
12962;SDS011;6546;49.882;8.666;2022-11-03T02:47:47;6.57;;;3.00;;
12962;SDS011;6546;49.882;8.666;2022-11-03T02:50:15;5.37;;;2.90;;
12962;SDS011;6546;49.882;8.666;2022-11-03T02:52:44;9.83;;;2.80;;
12962;SDS011;6546;49.882;8.666;2022-11-03T02:55:14;8.03;;;2.83;;
12962;SDS011;6546;49.882;8.666;2022-11-03T02:57:48;8.40;;;2.60;;
12962;SDS011;6546;49.882;8.666;2022-11-03T03:00:22;6.00;;;2.30;;
12962;SDS011;6546;49.882;8.666;2022-11-03T03:02:51;6.83;;;3.00;;
12962;SDS011;6546;49.882;8.666;2022-11-03T03:05:22;5.70;;;3.10;;
12962;SDS011;6546;49.882;8.666;2022-11-03T03:07:54;6.67;;;2.50;;
12962;SDS011;6546;49.882;8.666;2022-11-03T03:10:25;8.87;;;3.30;;
12962;SDS011;6546;49.882;8.666;2022-11-03T03:12:56;7.53;;;2.77;;
12962;SDS011;6546;49.882;8.666;2022-11-03T03:15:25;8.53;;;2.83;;
12962;SDS011;6546;49.882;8.666;2022-11-03T03:17:59;9.47;;;3.07;;
12962;SDS011;6546;49.882;8.666;2022-11-03T03:20:33;10.03;;;2.77;;
12962;SDS011;6546;49.882;8.666;2022-11-03T03:23:07;6.00;;;2.57;;
12962;SDS011;6546;49.882;8.666;2022-11-03T03:25:42;9.17;;;2.80;;
12962;SDS011;6546;49.882;8.666;2022-11-03T03:28:15;8.87;;;3.10;;
12962;SDS011;6546;49.882;8.666;2022-11-03T03:30:47;7.43;;;2.97;;
12962;SDS011;6546;49.882;8.666;2022-11-03T03:33:15;12.57;;;3.83;;
12962;SDS011;6546;49.882;8.666;2022-11-03T03:35:44;6.93;;;2.70;;
12962;SDS011;6546;49.882;8.666;2022-11-03T03:38:15;8.47;;;3.00;;
12962;SDS011;6546;49.882;8.666;2022-11-03T03:40:45;7.03;;;3.13;;
12962;SDS011;6546;49.882;8.666;2022-11-03T03:43:17;8.50;;;3.30;;
12962;SDS011;6546;49.882;8.666;2022-11-03T03:45:45;7.20;;;3.37;;
12962;SDS011;6546;49.882;8.666;2022-11-03T03:48:16;7.30;;;2.93;;
12962;SDS011;6546;49.882;8.666;2022-11-03T03:50:42;8.87;;;3.03;;
12962;SDS011;6546;49.882;8.666;2022-11-03T03:53:12;6.00;;;3.00;;
12962;SDS011;6546;49.882;8.666;2022-11-03T03:55:45;9.60;;;3.33;;
12962;SDS011;6546;49.882;8.666;2022-11-03T03:58:19;11.03;;;3.30;;
12962;SDS011;6546;49.882;8.666;2022-11-03T04:00:46;7.43;;;2.80;;
12962;SDS011;6546;49.882;8.666;2022-11-03T04:03:13;6.83;;;2.73;;
12962;SDS011;6546;49.882;8.666;2022-11-03T04:05:42;6.80;;;2.90;;
12962;SDS011;6546;49.882;8.666;2022-11-03T04:08:09;8.40;;;3.33;;
12962;SDS011;6546;49.882;8.666;2022-11-03T04:10:35;5.53;;;2.87;;
12962;SDS011;6546;49.882;8.666;2022-11-03T04:13:02;8.53;;;3.10;;
12962;SDS011;6546;49.882;8.666;2022-11-03T04:15:48;9.33;;;3.00;;
12962;SDS011;6546;49.882;8.666;2022-11-03T04:18:32;7.33;;;3.17;;
12962;SDS011;6546;49.882;8.666;2022-11-03T04:21:16;7.60;;;3.23;;
12962;SDS011;6546;49.882;8.666;2022-11-03T04:24:00;7.50;;;3.20;;
12962;SDS011;6546;49.882;8.666;2022-11-03T04:26:27;4.97;;;2.83;;
12962;SDS011;6546;49.882;8.666;2022-11-03T04:28:54;7.03;;;3.33;;
12962;SDS011;6546;49.882;8.666;2022-11-03T04:31:24;7.10;;;2.87;;
12962;SDS011;6546;49.882;8.666;2022-11-03T04:33:51;8.17;;;2.80;;
12962;SDS011;6546;49.882;8.666;2022-11-03T04:36:19;6.97;;;2.53;;
12962;SDS011;6546;49.882;8.666;2022-11-03T04:38:47;8.60;;;3.03;;
12962;SDS011;6546;49.882;8.666;2022-11-03T04:41:15;11.43;;;3.20;;
12962;SDS011;6546;49.882;8.666;2022-11-03T04:43:43;4.87;;;2.83;;
12962;SDS011;6546;49.882;8.666;2022-11-03T04:46:11;9.30;;;2.90;;
12962;SDS011;6546;49.882;8.666;2022-11-03T04:48:42;9.87;;;3.60;;
12962;SDS011;6546;49.882;8.666;2022-11-03T04:51:12;6.90;;;3.10;;
12962;SDS011;6546;49.882;8.666;2022-11-03T04:53:47;6.43;;;2.83;;
12962;SDS011;6546;49.882;8.666;2022-11-03T04:56:19;4.67;;;2.67;;
12962;SDS011;6546;49.882;8.666;2022-11-03T04:58:47;4.90;;;3.00;;
12962;SDS011;6546;49.882;8.666;2022-11-03T05:01:15;8.87;;;2.87;;
12962;SDS011;6546;49.882;8.666;2022-11-03T05:03:45;9.23;;;3.47;;
12962;SDS011;6546;49.882;8.666;2022-11-03T05:06:15;12.07;;;4.67;;
12962;SDS011;6546;49.882;8.666;2022-11-03T05:08:44;9.70;;;4.53;;
12962;SDS011;6546;49.882;8.666;2022-11-03T05:11:18;12.40;;;4.93;;
12962;SDS011;6546;49.882;8.666;2022-11-03T05:13:47;8.37;;;4.40;;
12962;SDS011;6546;49.882;8.666;2022-11-03T05:16:15;9.57;;;5.07;;
12962;SDS011;6546;49.882;8.666;2022-11-03T05:18:45;10.80;;;5.47;;
12962;SDS011;6546;49.882;8.666;2022-11-03T05:21:14;11.00;;;4.80;;
12962;SDS011;6546;49.882;8.666;2022-11-03T05:23:43;10.40;;;5.80;;
12962;SDS011;6546;49.882;8.666;2022-11-03T05:26:13;12.57;;;5.87;;
12962;SDS011;6546;49.882;8.666;2022-11-03T05:28:43;12.93;;;6.00;;
12962;SDS011;6546;49.882;8.666;2022-11-03T05:31:20;9.90;;;5.47;;
12962;SDS011;6546;49.882;8.666;2022-11-03T05:33:50;11.73;;;5.63;;
12962;SDS011;6546;49.882;8.666;2022-11-03T05:36:23;13.37;;;5.50;;
12962;SDS011;6546;49.882;8.666;2022-11-03T05:38:52;12.67;;;6.33;;
12962;SDS011;6546;49.882;8.666;2022-11-03T05:41:21;10.40;;;5.30;;
12962;SDS011;6546;49.882;8.666;2022-11-03T05:43:52;9.07;;;4.50;;
12962;SDS011;6546;49.882;8.666;2022-11-03T05:46:21;11.33;;;5.37;;
12962;SDS011;6546;49.882;8.666;2022-11-03T05:48:48;12.87;;;6.43;;
12962;SDS011;6546;49.882;8.666;2022-11-03T05:51:17;17.37;;;9.27;;
12962;SDS011;6546;49.882;8.666;2022-11-03T05:53:46;22.13;;;10.50;;
12962;SDS011;6546;49.882;8.666;2022-11-03T05:56:17;31.33;;;12.37;;
12962;SDS011;6546;49.882;8.666;2022-11-03T05:58:45;28.40;;;13.33;;
12962;SDS011;6546;49.882;8.666;2022-11-03T06:01:15;28.97;;;14.30;;
12962;SDS011;6546;49.882;8.666;2022-11-03T06:03:46;31.87;;;13.63;;
12962;SDS011;6546;49.882;8.666;2022-11-03T06:06:15;28.60;;;13.00;;
12962;SDS011;6546;49.882;8.666;2022-11-03T06:08:46;27.07;;;13.03;;
12962;SDS011;6546;49.882;8.666;2022-11-03T06:11:20;27.23;;;13.53;;
12962;SDS011;6546;49.882;8.666;2022-11-03T06:13:50;29.80;;;12.67;;
12962;SDS011;6546;49.882;8.666;2022-11-03T06:16:26;21.07;;;10.80;;
12962;SDS011;6546;49.882;8.666;2022-11-03T06:19:00;22.30;;;10.67;;
12962;SDS011;6546;49.882;8.666;2022-11-03T06:21:39;24.13;;;10.77;;
12962;SDS011;6546;49.882;8.666;2022-11-03T06:24:06;20.23;;;9.67;;
12962;SDS011;6546;49.882;8.666;2022-11-03T06:26:34;19.30;;;9.70;;
12962;SDS011;6546;49.882;8.666;2022-11-03T06:29:02;18.20;;;8.60;;
12962;SDS011;6546;49.882;8.666;2022-11-03T06:31:29;20.27;;;8.90;;
12962;SDS011;6546;49.882;8.666;2022-11-03T06:33:58;17.73;;;8.43;;
12962;SDS011;6546;49.882;8.666;2022-11-03T06:36:25;16.70;;;8.00;;
12962;SDS011;6546;49.882;8.666;2022-11-03T06:38:55;14.03;;;6.33;;
12962;SDS011;6546;49.882;8.666;2022-11-03T06:41:26;13.53;;;7.07;;
12962;SDS011;6546;49.882;8.666;2022-11-03T06:43:54;17.30;;;7.13;;
12962;SDS011;6546;49.882;8.666;2022-11-03T06:46:23;14.03;;;6.73;;
12962;SDS011;6546;49.882;8.666;2022-11-03T06:48:51;10.00;;;5.70;;
12962;SDS011;6546;49.882;8.666;2022-11-03T06:51:20;11.97;;;5.63;;
12962;SDS011;6546;49.882;8.666;2022-11-03T06:53:49;16.10;;;7.50;;
12962;SDS011;6546;49.882;8.666;2022-11-03T06:56:19;13.30;;;4.93;;
12962;SDS011;6546;49.882;8.666;2022-11-03T06:58:48;10.70;;;4.80;;
12962;SDS011;6546;49.882;8.666;2022-11-03T07:01:18;12.90;;;5.23;;
12962;SDS011;6546;49.882;8.666;2022-11-03T07:03:47;11.33;;;5.20;;
12962;SDS011;6546;49.882;8.666;2022-11-03T07:06:17;14.30;;;5.33;;
12962;SDS011;6546;49.882;8.666;2022-11-03T07:08:48;9.33;;;4.67;;
12962;SDS011;6546;49.882;8.666;2022-11-03T07:11:19;14.30;;;4.93;;
12962;SDS011;6546;49.882;8.666;2022-11-03T07:13:50;10.20;;;5.20;;
12962;SDS011;6546;49.882;8.666;2022-11-03T07:16:21;10.00;;;4.37;;
12962;SDS011;6546;49.882;8.666;2022-11-03T07:18:52;9.07;;;4.43;;
12962;SDS011;6546;49.882;8.666;2022-11-03T07:21:29;11.50;;;4.83;;
12962;SDS011;6546;49.882;8.666;2022-11-03T07:23:59;12.97;;;5.20;;
12962;SDS011;6546;49.882;8.666;2022-11-03T07:26:28;10.50;;;5.27;;
12962;SDS011;6546;49.882;8.666;2022-11-03T07:28:58;15.37;;;5.60;;
12962;SDS011;6546;49.882;8.666;2022-11-03T07:31:25;12.97;;;5.20;;
12962;SDS011;6546;49.882;8.666;2022-11-03T07:33:55;10.90;;;5.50;;
12962;SDS011;6546;49.882;8.666;2022-11-03T07:36:24;12.40;;;5.43;;
12962;SDS011;6546;49.882;8.666;2022-11-03T07:38:56;12.73;;;6.13;;
12962;SDS011;6546;49.882;8.666;2022-11-03T07:41:27;10.63;;;5.17;;
12962;SDS011;6546;49.882;8.666;2022-11-03T07:43:58;10.03;;;4.90;;
12962;SDS011;6546;49.882;8.666;2022-11-03T07:46:26;8.17;;;4.23;;
12962;SDS011;6546;49.882;8.666;2022-11-03T07:48:54;12.13;;;6.60;;
12962;SDS011;6546;49.882;8.666;2022-11-03T07:51:23;11.93;;;6.37;;
12962;SDS011;6546;49.882;8.666;2022-11-03T07:53:51;9.07;;;4.83;;
12962;SDS011;6546;49.882;8.666;2022-11-03T07:56:20;14.83;;;4.93;;
12962;SDS011;6546;49.882;8.666;2022-11-03T07:58:49;9.93;;;4.70;;
12962;SDS011;6546;49.882;8.666;2022-11-03T08:01:21;7.93;;;4.60;;
12962;SDS011;6546;49.882;8.666;2022-11-03T08:03:51;11.43;;;4.63;;
12962;SDS011;6546;49.882;8.666;2022-11-03T08:06:21;13.23;;;5.10;;
12962;SDS011;6546;49.882;8.666;2022-11-03T08:08:48;9.80;;;4.57;;
12962;SDS011;6546;49.882;8.666;2022-11-03T08:11:14;10.13;;;4.40;;
12962;SDS011;6546;49.882;8.666;2022-11-03T08:13:41;12.63;;;5.17;;
12962;SDS011;6546;49.882;8.666;2022-11-03T08:16:09;13.83;;;5.27;;
12962;SDS011;6546;49.882;8.666;2022-11-03T08:18:35;11.03;;;5.27;;
12962;SDS011;6546;49.882;8.666;2022-11-03T08:21:02;10.07;;;4.80;;
12962;SDS011;6546;49.882;8.666;2022-11-03T08:23:29;8.03;;;4.30;;
12962;SDS011;6546;49.882;8.666;2022-11-03T08:25:55;8.27;;;4.30;;
12962;SDS011;6546;49.882;8.666;2022-11-03T08:28:22;10.47;;;4.03;;
12962;SDS011;6546;49.882;8.666;2022-11-03T08:30:49;8.17;;;4.03;;
12962;SDS011;6546;49.882;8.666;2022-11-03T08:33:17;7.40;;;3.90;;
12962;SDS011;6546;49.882;8.666;2022-11-03T08:35:44;6.20;;;3.57;;
12962;SDS011;6546;49.882;8.666;2022-11-03T08:38:10;9.83;;;4.07;;
12962;SDS011;6546;49.882;8.666;2022-11-03T08:40:37;6.80;;;3.50;;
12962;SDS011;6546;49.882;8.666;2022-11-03T08:43:04;6.93;;;3.60;;
12962;SDS011;6546;49.882;8.666;2022-11-03T08:45:30;6.43;;;4.40;;
12962;SDS011;6546;49.882;8.666;2022-11-03T08:47:57;8.23;;;5.13;;
12962;SDS011;6546;49.882;8.666;2022-11-03T08:50:25;10.30;;;4.87;;
12962;SDS011;6546;49.882;8.666;2022-11-03T08:52:52;9.13;;;4.40;;
12962;SDS011;6546;49.882;8.666;2022-11-03T08:55:18;7.73;;;4.23;;
12962;SDS011;6546;49.882;8.666;2022-11-03T08:57:45;7.27;;;4.30;;
12962;SDS011;6546;49.882;8.666;2022-11-03T09:00:12;6.97;;;4.00;;
12962;SDS011;6546;49.882;8.666;2022-11-03T09:02:41;8.43;;;4.90;;
12962;SDS011;6546;49.882;8.666;2022-11-03T09:05:07;8.43;;;4.50;;
12962;SDS011;6546;49.882;8.666;2022-11-03T09:07:38;9.53;;;4.37;;
12962;SDS011;6546;49.882;8.666;2022-11-03T09:10:06;7.30;;;4.03;;
12962;SDS011;6546;49.882;8.666;2022-11-03T09:12:34;9.40;;;5.00;;
12962;SDS011;6546;49.882;8.666;2022-11-03T09:15:01;8.70;;;5.33;;
12962;SDS011;6546;49.882;8.666;2022-11-03T09:17:28;7.67;;;4.97;;
12962;SDS011;6546;49.882;8.666;2022-11-03T09:19:54;9.27;;;5.63;;
12962;SDS011;6546;49.882;8.666;2022-11-03T09:22:21;8.00;;;6.10;;
12962;SDS011;6546;49.882;8.666;2022-11-03T09:24:49;12.57;;;5.80;;
12962;SDS011;6546;49.882;8.666;2022-11-03T09:27:16;9.63;;;5.30;;
12962;SDS011;6546;49.882;8.666;2022-11-03T09:29:42;10.43;;;6.43;;
12962;SDS011;6546;49.882;8.666;2022-11-03T09:32:09;17.23;;;9.00;;
12962;SDS011;6546;49.882;8.666;2022-11-03T09:34:36;14.10;;;6.90;;
12962;SDS011;6546;49.882;8.666;2022-11-03T09:37:03;15.30;;;6.60;;
12962;SDS011;6546;49.882;8.666;2022-11-03T09:39:29;12.07;;;6.37;;
12962;SDS011;6546;49.882;8.666;2022-11-03T09:41:58;15.27;;;6.07;;
12962;SDS011;6546;49.882;8.666;2022-11-03T09:44:28;11.97;;;6.13;;
12962;SDS011;6546;49.882;8.666;2022-11-03T09:46:57;17.93;;;6.90;;
12962;SDS011;6546;49.882;8.666;2022-11-03T09:49:24;14.67;;;6.90;;
12962;SDS011;6546;49.882;8.666;2022-11-03T09:51:51;16.90;;;6.50;;
12962;SDS011;6546;49.882;8.666;2022-11-03T09:54:18;14.60;;;7.67;;
12962;SDS011;6546;49.882;8.666;2022-11-03T09:56:45;12.97;;;7.00;;
12962;SDS011;6546;49.882;8.666;2022-11-03T09:59:14;17.27;;;7.17;;
12962;SDS011;6546;49.882;8.666;2022-11-03T10:01:43;15.30;;;7.00;;
12962;SDS011;6546;49.882;8.666;2022-11-03T10:04:12;18.57;;;6.93;;
12962;SDS011;6546;49.882;8.666;2022-11-03T10:06:39;14.23;;;6.47;;
12962;SDS011;6546;49.882;8.666;2022-11-03T10:09:07;12.90;;;7.60;;
12962;SDS011;6546;49.882;8.666;2022-11-03T10:11:40;13.53;;;6.60;;
12962;SDS011;6546;49.882;8.666;2022-11-03T10:14:08;12.73;;;6.40;;
12962;SDS011;6546;49.882;8.666;2022-11-03T10:16:40;12.37;;;6.80;;
12962;SDS011;6546;49.882;8.666;2022-11-03T10:19:08;13.23;;;6.80;;
12962;SDS011;6546;49.882;8.666;2022-11-03T10:21:35;14.00;;;6.77;;
12962;SDS011;6546;49.882;8.666;2022-11-03T10:24:02;15.37;;;7.50;;
12962;SDS011;6546;49.882;8.666;2022-11-03T10:26:29;16.47;;;7.70;;
12962;SDS011;6546;49.882;8.666;2022-11-03T10:29:10;18.97;;;8.10;;
12962;SDS011;6546;49.882;8.666;2022-11-03T10:31:46;13.37;;;7.17;;
12962;SDS011;6546;49.882;8.666;2022-11-03T10:34:22;12.50;;;6.67;;
12962;SDS011;6546;49.882;8.666;2022-11-03T10:37:13;12.40;;;6.90;;
12962;SDS011;6546;49.882;8.666;2022-11-03T10:39:45;14.17;;;6.67;;
12962;SDS011;6546;49.882;8.666;2022-11-03T10:42:16;11.17;;;6.50;;
12962;SDS011;6546;49.882;8.666;2022-11-03T10:44:45;14.97;;;6.83;;
12962;SDS011;6546;49.882;8.666;2022-11-03T10:47:31;15.17;;;6.77;;
12962;SDS011;6546;49.882;8.666;2022-11-03T10:49:58;11.83;;;6.60;;
12962;SDS011;6546;49.882;8.666;2022-11-03T10:52:26;19.13;;;6.77;;
12962;SDS011;6546;49.882;8.666;2022-11-03T10:54:56;15.50;;;6.90;;
12962;SDS011;6546;49.882;8.666;2022-11-03T10:57:24;15.77;;;7.37;;
12962;SDS011;6546;49.882;8.666;2022-11-03T10:59:52;17.77;;;7.27;;
12962;SDS011;6546;49.882;8.666;2022-11-03T11:02:20;14.47;;;6.63;;
12962;SDS011;6546;49.882;8.666;2022-11-03T11:04:51;13.40;;;6.90;;
12962;SDS011;6546;49.882;8.666;2022-11-03T11:07:22;12.63;;;6.90;;
12962;SDS011;6546;49.882;8.666;2022-11-03T11:09:51;18.13;;;7.70;;
12962;SDS011;6546;49.882;8.666;2022-11-03T11:12:20;13.70;;;7.50;;
12962;SDS011;6546;49.882;8.666;2022-11-03T11:14:52;14.40;;;6.90;;
12962;SDS011;6546;49.882;8.666;2022-11-03T11:17:41;16.37;;;7.50;;
12962;SDS011;6546;49.882;8.666;2022-11-03T11:20:29;14.80;;;7.27;;
12962;SDS011;6546;49.882;8.666;2022-11-03T11:26:13;16.90;;;7.77;;
12962;SDS011;6546;49.882;8.666;2022-11-03T11:28:43;15.20;;;8.97;;
12962;SDS011;6546;49.882;8.666;2022-11-03T11:40:00;14.60;;;7.40;;
12962;SDS011;6546;49.882;8.666;2022-11-03T11:42:27;18.67;;;7.63;;
12962;SDS011;6546;49.882;8.666;2022-11-03T11:45:01;17.57;;;7.97;;
12962;SDS011;6546;49.882;8.666;2022-11-03T11:47:29;15.20;;;7.50;;
12962;SDS011;6546;49.882;8.666;2022-11-03T11:50:05;14.83;;;7.40;;
12962;SDS011;6546;49.882;8.666;2022-11-03T11:52:54;13.33;;;8.30;;
12962;SDS011;6546;49.882;8.666;2022-11-03T11:55:38;20.87;;;9.30;;
12962;SDS011;6546;49.882;8.666;2022-11-03T12:00:56;14.27;;;7.27;;
12962;SDS011;6546;49.882;8.666;2022-11-03T12:03:27;12.17;;;7.60;;
12962;SDS011;6546;49.882;8.666;2022-11-03T12:05:56;13.17;;;6.87;;
12962;SDS011;6546;49.882;8.666;2022-11-03T12:08:26;12.47;;;6.77;;
12962;SDS011;6546;49.882;8.666;2022-11-03T12:10:55;9.67;;;5.93;;
12962;SDS011;6546;49.882;8.666;2022-11-03T12:13:33;9.87;;;5.93;;
12962;SDS011;6546;49.882;8.666;2022-11-03T12:16:01;12.83;;;6.33;;
12962;SDS011;6546;49.882;8.666;2022-11-03T12:18:31;7.73;;;4.70;;
12962;SDS011;6546;49.882;8.666;2022-11-03T12:21:00;11.43;;;5.53;;
12962;SDS011;6546;49.882;8.666;2022-11-03T12:23:33;11.63;;;5.20;;
12962;SDS011;6546;49.882;8.666;2022-11-03T12:26:01;11.20;;;5.77;;
12962;SDS011;6546;49.882;8.666;2022-11-03T12:28:29;9.50;;;5.33;;
12962;SDS011;6546;49.882;8.666;2022-11-03T12:30:57;10.23;;;5.00;;
12962;SDS011;6546;49.882;8.666;2022-11-03T12:33:24;9.83;;;5.43;;
12962;SDS011;6546;49.882;8.666;2022-11-03T12:35:51;10.63;;;5.60;;
12962;SDS011;6546;49.882;8.666;2022-11-03T12:38:18;9.90;;;5.33;;
12962;SDS011;6546;49.882;8.666;2022-11-03T12:40:48;12.23;;;5.93;;
12962;SDS011;6546;49.882;8.666;2022-11-03T12:43:15;8.67;;;5.67;;
12962;SDS011;6546;49.882;8.666;2022-11-03T12:45:41;10.97;;;5.27;;
12962;SDS011;6546;49.882;8.666;2022-11-03T12:48:08;14.13;;;6.30;;
12962;SDS011;6546;49.882;8.666;2022-11-03T12:50:35;11.03;;;5.17;;
12962;SDS011;6546;49.882;8.666;2022-11-03T12:53:03;12.87;;;6.77;;
12962;SDS011;6546;49.882;8.666;2022-11-03T12:55:31;9.73;;;6.13;;
12962;SDS011;6546;49.882;8.666;2022-11-03T12:58:00;9.87;;;5.67;;
12962;SDS011;6546;49.882;8.666;2022-11-03T13:00:27;11.60;;;5.57;;
12962;SDS011;6546;49.882;8.666;2022-11-03T13:02:54;9.33;;;5.20;;
12962;SDS011;6546;49.882;8.666;2022-11-03T13:05:20;10.07;;;5.23;;
12962;SDS011;6546;49.882;8.666;2022-11-03T13:07:47;12.30;;;4.87;;
12962;SDS011;6546;49.882;8.666;2022-11-03T13:10:13;11.30;;;5.30;;
12962;SDS011;6546;49.882;8.666;2022-11-03T13:12:40;9.07;;;5.30;;
12962;SDS011;6546;49.882;8.666;2022-11-03T13:15:10;10.67;;;5.80;;
12962;SDS011;6546;49.882;8.666;2022-11-03T13:17:39;14.80;;;5.37;;
12962;SDS011;6546;49.882;8.666;2022-11-03T13:20:07;11.20;;;5.50;;
12962;SDS011;6546;49.882;8.666;2022-11-03T13:22:35;11.00;;;5.60;;
12962;SDS011;6546;49.882;8.666;2022-11-03T13:25:02;8.73;;;5.33;;
12962;SDS011;6546;49.882;8.666;2022-11-03T13:27:29;10.47;;;4.47;;
12962;SDS011;6546;49.882;8.666;2022-11-03T13:29:56;10.43;;;5.60;;
12962;SDS011;6546;49.882;8.666;2022-11-03T13:32:24;10.93;;;5.17;;
12962;SDS011;6546;49.882;8.666;2022-11-03T13:34:50;12.53;;;4.80;;
12962;SDS011;6546;49.882;8.666;2022-11-03T13:37:17;14.87;;;4.60;;
12962;SDS011;6546;49.882;8.666;2022-11-03T13:39:44;8.27;;;4.43;;
12962;SDS011;6546;49.882;8.666;2022-11-03T13:42:10;13.67;;;4.13;;
12962;SDS011;6546;49.882;8.666;2022-11-03T13:44:37;9.20;;;4.63;;
12962;SDS011;6546;49.882;8.666;2022-11-03T13:47:03;10.13;;;4.60;;
12962;SDS011;6546;49.882;8.666;2022-11-03T13:49:31;9.60;;;4.73;;
12962;SDS011;6546;49.882;8.666;2022-11-03T13:51:58;8.40;;;4.47;;
12962;SDS011;6546;49.882;8.666;2022-11-03T13:54:24;7.70;;;3.93;;
12962;SDS011;6546;49.882;8.666;2022-11-03T13:56:51;11.77;;;4.30;;
12962;SDS011;6546;49.882;8.666;2022-11-03T13:59:18;7.13;;;4.13;;
12962;SDS011;6546;49.882;8.666;2022-11-03T14:01:44;6.97;;;4.20;;
12962;SDS011;6546;49.882;8.666;2022-11-03T14:04:11;8.13;;;4.30;;
12962;SDS011;6546;49.882;8.666;2022-11-03T14:06:39;11.50;;;3.97;;
12962;SDS011;6546;49.882;8.666;2022-11-03T14:09:06;8.97;;;4.07;;
12962;SDS011;6546;49.882;8.666;2022-11-03T14:11:32;9.43;;;4.50;;
12962;SDS011;6546;49.882;8.666;2022-11-03T14:14:16;8.57;;;4.27;;
12962;SDS011;6546;49.882;8.666;2022-11-03T14:16:43;9.73;;;4.33;;
12962;SDS011;6546;49.882;8.666;2022-11-03T14:19:10;8.13;;;4.03;;
12962;SDS011;6546;49.882;8.666;2022-11-03T14:21:36;6.20;;;4.07;;
12962;SDS011;6546;49.882;8.666;2022-11-03T14:24:08;8.97;;;4.20;;
12962;SDS011;6546;49.882;8.666;2022-11-03T14:26:34;10.50;;;4.50;;
12962;SDS011;6546;49.882;8.666;2022-11-03T14:29:01;9.37;;;4.00;;
12962;SDS011;6546;49.882;8.666;2022-11-03T14:31:28;8.03;;;3.80;;
12962;SDS011;6546;49.882;8.666;2022-11-03T14:33:55;7.23;;;3.87;;
12962;SDS011;6546;49.882;8.666;2022-11-03T14:36:21;5.73;;;3.23;;
12962;SDS011;6546;49.882;8.666;2022-11-03T14:38:48;7.37;;;3.60;;
12962;SDS011;6546;49.882;8.666;2022-11-03T14:41:16;6.57;;;3.33;;
12962;SDS011;6546;49.882;8.666;2022-11-03T14:44:00;7.53;;;3.30;;
12962;SDS011;6546;49.882;8.666;2022-11-03T14:46:27;5.47;;;3.20;;
12962;SDS011;6546;49.882;8.666;2022-11-03T14:48:54;8.40;;;3.53;;
12962;SDS011;6546;49.882;8.666;2022-11-03T14:51:20;6.23;;;2.87;;
12962;SDS011;6546;49.882;8.666;2022-11-03T14:53:47;10.60;;;3.20;;
12962;SDS011;6546;49.882;8.666;2022-11-03T14:56:13;8.97;;;2.90;;
12962;SDS011;6546;49.882;8.666;2022-11-03T14:58:41;7.57;;;3.27;;
12962;SDS011;6546;49.882;8.666;2022-11-03T15:01:08;6.57;;;3.43;;
12962;SDS011;6546;49.882;8.666;2022-11-03T15:03:37;7.23;;;3.00;;
12962;SDS011;6546;49.882;8.666;2022-11-03T15:06:04;3.53;;;2.60;;
12962;SDS011;6546;49.882;8.666;2022-11-03T15:08:32;7.67;;;3.30;;
12962;SDS011;6546;49.882;8.666;2022-11-03T15:10:59;6.20;;;3.63;;
12962;SDS011;6546;49.882;8.666;2022-11-03T15:13:25;7.30;;;3.80;;
12962;SDS011;6546;49.882;8.666;2022-11-03T15:15:53;6.37;;;4.50;;
12962;SDS011;6546;49.882;8.666;2022-11-03T15:18:20;7.17;;;4.00;;
12962;SDS011;6546;49.882;8.666;2022-11-03T15:20:47;6.10;;;3.27;;